Barksdale Air Force Base
KBAD : now visible

Airfield :











YOU CAN JOIN US ON...

 
LOGIN :

Register | Disclaimer

   EN    FR    IT 

 









Legend :    VFR   Marginal VFR   IFR   Intensive IFR   Very Intensive IFR
Visi :
Ceiling :
>= 8 km
>= 3000ft
5 to 8 km
1000 to 3000 ft
1500m to 5 km
500 to 1000 ft
800 to 1500m
200 to 500 ft
< 800m
< 200 ft
Symbols :   Thunderstorms  Fog  Heavy snow  Heavy precipitations  Wind > 20 kt






- Airport Elevation : 166 ft


KBAD - Barksdale Air Force Base

CURRENT METAR :
  • 280456Z 15005KT 10SM CLR 18/18 A2989 RMK AO2A SLP123 T01820182

EXPIRED METARs :
  • 280356Z 00000KT 9999 FEW075 19/19 A2988 RMK AO2A SLP120 T01860186
  • 280256Z AUTO 07003KT 3/8SM R15/1600V2600FT FG CLR 20/18 A2985 RMK AO2 RAE04 SLP110 P0000 60000 T01970183 50008
  • 280244Z AUTO 07003KT 3/8SM R15/1800V2400FT HZ CLR 20/17 A2986 RMK AO2 RAE04 SLP113

TAF TAF KBAD
Valid from the 28 at 02:00 until the 29 at 08:00 UTC


280200Z 2802/2908 16005KT 9999 SCT050 QNH2985INS
BECMG 2805/2806 24006KT 9999 VCTS OVC050CB QNH2989INS
TEMPO 2809/2812 24025G35KT 2400 +TSRA BR OVC030CB
BECMG 2815/2816 23003KT 9999 NSW SCT050 BKN100 QNH2994INS
BECMG 2820/2821 25010KT 9999 VCTS OVC040CB QNH2994INS
BECMG 2901/2902 29007KT 9999 NSW SCT050 BKN100 QNH2994INS TX27/2821Z TN16/2811Z
KZFW FIR / North America



MET'MAP, your aeronautical weather chart ! - Copyright ORBIFLY December 2007 - Disclaimer

ORBIFLY MET'MAP TEAM :

Programming & Development : Alexandra Zaïnal
Concept & original design : Baudouin d'Aumeries
Assistance for programming : Marc-Olivier Méhu
Technical & hardware support : Manuel Goepfert

Contact : metmap@orbifly.com




SOURCES & CREDITS :

   NOAA       Earth
Advisory